TimeCST,TemperatureF,Dew PointF,Humidity,Sea Level PressureIn,VisibilityMPH,Wind Direction,Wind SpeedMPH,Gust SpeedMPH,PrecipitationIn,Events,Conditions,WindDirDegrees,DateUTC
12:53 AM,39.9,26.1,58,30.13,10.0,SSW,15.0,-,N/A,,Clear,210,2013-01-19 06:53:00
1:53 AM,39.9,25.0,55,30.13,10.0,SSW,13.8,-,N/A,,Clear,200,2013-01-19 07:53:00
2:53 AM,39.9,25.0,55,30.11,10.0,SSW,13.8,-,N/A,,Clear,200,2013-01-19 08:53:00
3:53 AM,39.0,24.1,55,30.10,10.0,SSW,12.7,-,N/A,,Clear,200,2013-01-19 09:53:00
4:53 AM,39.0,24.1,55,30.09,10.0,SSW,12.7,-,N/A,,Clear,200,2013-01-19 10:53:00
5:53 AM,39.0,25.0,57,30.08,10.0,SSW,12.7,-,N/A,,Clear,200,2013-01-19 11:53:00
6:53 AM,39.9,25.0,55,30.08,10.0,SSW,15.0,-,N/A,,Clear,200,2013-01-19 12:53:00
7:53 AM,41.0,26.1,55,30.06,10.0,SSW,16.1,-,N/A,,Clear,200,2013-01-19 13:53:00
8:53 AM,45.0,28.0,52,30.06,10.0,SSW,18.4,26.5,N/A,,Clear,210,2013-01-19 14:53:00
9:53 AM,50.0,30.0,46,30.06,10.0,SSW,17.3,26.5,N/A,,Clear,210,2013-01-19 15:53:00
10:53 AM,55.0,30.9,40,30.04,10.0,SW,17.3,24.2,N/A,,Clear,230,2013-01-19 16:53:00
11:53 AM,59.0,30.9,35,29.99,10.0,WSW,20.7,29.9,N/A,,Clear,250,2013-01-19 17:53:00
12:53 PM,61.0,32.0,34,29.97,10.0,WSW,23.0,29.9,N/A,,Clear,240,2013-01-19 18:53:00
1:53 PM,63.0,30.9,30,29.96,10.0,West,17.3,29.9,N/A,,Clear,260,2013-01-19 19:53:00
2:53 PM,62.1,30.9,31,29.96,10.0,WSW,16.1,25.3,N/A,,Clear,250,2013-01-19 20:53:00
3:53 PM,61.0,30.0,31,29.98,10.0,West,16.1,25.3,N/A,,Clear,260,2013-01-19 21:53:00
4:53 PM,57.0,30.9,37,30.01,10.0,West,10.4,-,N/A,,Clear,260,2013-01-19 22:53:00
5:53 PM,51.1,30.9,46,30.03,10.0,WSW,9.2,-,N/A,,Clear,250,2013-01-19 23:53:00
6:53 PM,51.1,32.0,48,30.06,10.0,West,11.5,-,N/A,,Clear,260,2013-01-20 00:53:00
7:53 PM,50.0,32.0,50,30.09,10.0,West,9.2,-,N/A,,Clear,270,2013-01-20 01:53:00
8:53 PM,46.9,32.0,56,30.10,10.0,West,9.2,-,N/A,,Clear,270,2013-01-20 02:53:00
9:53 PM,48.9,33.1,54,30.12,10.0,West,13.8,19.6,N/A,,Clear,280,2013-01-20 03:53:00
10:53 PM,45.0,30.9,58,30.15,10.0,NW,10.4,-,N/A,,Clear,310,2013-01-20 04:53:00
11:53 PM,44.1,28.9,55,30.17,10.0,NW,10.4,-,N/A,,Clear,320,2013-01-20 05:53:00